Aeroporto :
LOGIN :

Iscrizione | Disclaimer

   EN    FR    IT 

 










Sommario :    VFR   VFR Marginale   IFR   IFR Intensivo   IFR Molto Intensivo
Visibilità : 
Base nubi : 
>= 8 km
>= 3000ft
5 / 8 km
1000 / 3000 ft
1500m / 5 km
500 / 1000 ft
800 / 1500m
200 / 500 ft
< 800m
< 200 ft
Simboli :   Temporali  Nebbia  Neve Forte  Precipitazioni Forti  Vento > 20 kt
SIGMETs :   Varie  Temporali  Ghiacco  Turbolenza  Onda orograficha  Ceneri Vulcaniche






- Altitudine del aeroporto : 397 ft
- Codice IATA : IAS


LRIA - Iasi

ULTIMO METAR :
  • 150530Z 22004KT CAVOK 04/02 Q1011 R14/19//95

METARs OBSOLETI :
  • 150500Z 22003KT CAVOK 05/02 Q1011 R14/19//95
  • 150430Z 26003KT 210V300 CAVOK 04/02 Q1010 R14/19//95
  • 150400Z 33007KT CAVOK 05/02 Q1010 R14/19//95
  • 150330Z 34010KT CAVOK 06/02 Q1009 R14/19//95
  • 150300Z 27007KT CAVOK 06/02 Q1008 R14/19//95

TAF TAF LRIA
Valido dal 15 a 06 ore il 15 a 15 ore UTC


150500Z 1506/1515 VRB04KT CAVOK



MetMap, La meteo Aeronautica in un colpo d'occhio ! - Copyright ORBIFLY Dicembre 2007 - Disclaimer

ORBIFLY MET'MAP TEAM :

Programmazione e sviluppo : Alexandra Zaïnal
Concezione : Baudouin d'Aumeries
Aiuto per la programmazione : Marc-Olivier Méhu
Supporto tecnico e logistico : Manuel Goepfert
Aiuto per la traduzione : Arnaldo La Scala

Contatto : metmap@orbifly.com




FONTI E CREDITI :

   NOAA